TimeEDT,TemperatureF,Dew PointF,Humidity,Sea Level PressureIn,VisibilityMPH,Wind Direction,Wind SpeedMPH,Gust SpeedMPH,PrecipitationIn,Events,Conditions,WindDirDegrees,DateUTC
12:53 AM,36.0,34.0,93,30.29,10.0,Calm,Calm,-,N/A,,Clear,0,2012-10-09 04:53:00
1:53 AM,34.0,33.1,96,30.29,10.0,Calm,Calm,-,N/A,,Clear,0,2012-10-09 05:53:00
2:53 AM,34.0,33.1,96,30.27,10.0,Calm,Calm,-,N/A,,Clear,0,2012-10-09 06:53:00
4:53 AM,33.1,32.0,96,30.28,10.0,Calm,Calm,-,N/A,,Clear,0,2012-10-09 08:53:00
5:53 AM,30.9,30.0,96,30.28,10.0,Calm,Calm,-,N/A,,Clear,0,2012-10-09 09:53:00
6:53 AM,30.9,30.0,96,30.29,10.0,Calm,Calm,-,N/A,,Clear,0,2012-10-09 10:53:00
8:53 AM,42.1,37.9,85,30.28,10.0,Calm,Calm,-,N/A,,Clear,0,2012-10-09 12:53:00
9:53 AM,48.0,43.0,83,30.28,10.0,SE,6.9,-,N/A,,Clear,130,2012-10-09 13:53:00
10:53 AM,54.0,45.0,72,30.27,10.0,SE,9.2,-,N/A,,Clear,140,2012-10-09 14:53:00
11:53 AM,57.0,44.1,62,30.25,10.0,SSE,13.8,19.6,N/A,,Clear,160,2012-10-09 15:53:00
12:53 PM,57.9,43.0,58,30.21,10.0,SSE,17.3,24.2,N/A,,Partly Cloudy,160,2012-10-09 16:53:00
1:53 PM,57.9,44.1,60,30.18,10.0,SE,17.3,25.3,N/A,,Clear,140,2012-10-09 17:53:00
2:53 PM,57.0,43.0,59,30.16,10.0,SSE,19.6,25.3,N/A,,Mostly Cloudy,160,2012-10-09 18:53:00
3:53 PM,57.0,44.1,62,30.15,10.0,SSE,15.0,-,N/A,,Overcast,160,2012-10-09 19:53:00
4:53 PM,57.0,42.1,57,30.13,10.0,SSE,10.4,-,N/A,,Overcast,160,2012-10-09 20:53:00
5:53 PM,55.0,43.0,64,30.13,10.0,South,5.8,-,N/A,,Overcast,170,2012-10-09 21:53:00
6:53 PM,53.1,43.0,69,30.12,10.0,South,6.9,-,N/A,,Overcast,170,2012-10-09 22:53:00
7:53 PM,53.1,43.0,69,30.11,10.0,South,8.1,-,N/A,,Clear,170,2012-10-09 23:53:00
8:53 PM,51.1,43.0,74,30.11,10.0,South,4.6,-,N/A,,Clear,180,2012-10-10 00:53:00
9:53 PM,50.0,43.0,77,30.09,10.0,South,4.6,-,N/A,,Clear,180,2012-10-10 01:53:00
10:53 PM,46.9,43.0,86,30.08,10.0,Calm,Calm,-,N/A,,Clear,0,2012-10-10 02:53:00
11:53 PM,45.0,43.0,93,30.06,10.0,Calm,Calm,-,N/A,,Partly Cloudy,0,2012-10-10 03:53:00